sensor_id;sensor_type;location;lat;lon;timestamp;P1;durP1;ratioP1;P2;durP2;ratioP2
74674;SDS011;63200;48.810;12.352;2023-02-02T00:01:23;10.23;;;2.00;;
74674;SDS011;63200;48.810;12.352;2023-02-02T00:03:49;8.52;;;1.77;;
74674;SDS011;63200;48.810;12.352;2023-02-02T00:06:19;8.30;;;1.63;;
74674;SDS011;63200;48.810;12.352;2023-02-02T00:08:46;6.50;;;1.92;;
74674;SDS011;63200;48.810;12.352;2023-02-02T00:11:11;6.70;;;1.70;;
74674;SDS011;63200;48.810;12.352;2023-02-02T00:13:37;18.50;;;2.42;;
74674;SDS011;63200;48.810;12.352;2023-02-02T00:18:50;8.32;;;1.48;;
74674;SDS011;63200;48.810;12.352;2023-02-02T00:21:16;6.85;;;1.95;;
74674;SDS011;63200;48.810;12.352;2023-02-02T00:23:41;0.68;;;0.68;;
74674;SDS011;63200;48.810;12.352;2023-02-02T00:26:08;6.00;;;2.25;;
74674;SDS011;63200;48.810;12.352;2023-02-02T00:28:33;10.25;;;2.30;;
74674;SDS011;63200;48.810;12.352;2023-02-02T00:30:59;1.60;;;1.50;;
74674;SDS011;63200;48.810;12.352;2023-02-02T00:33:24;8.80;;;2.17;;
74674;SDS011;63200;48.810;12.352;2023-02-02T00:35:52;9.40;;;2.22;;
74674;SDS011;63200;48.810;12.352;2023-02-02T00:38:18;8.13;;;1.75;;
74674;SDS011;63200;48.810;12.352;2023-02-02T00:40:43;10.82;;;2.42;;
74674;SDS011;63200;48.810;12.352;2023-02-02T00:43:09;8.38;;;1.80;;
74674;SDS011;63200;48.810;12.352;2023-02-02T00:45:35;6.40;;;1.48;;
74674;SDS011;63200;48.810;12.352;2023-02-02T00:48:01;5.63;;;2.10;;
74674;SDS011;63200;48.810;12.352;2023-02-02T00:50:26;7.72;;;1.88;;
74674;SDS011;63200;48.810;12.352;2023-02-02T00:52:52;6.50;;;2.25;;
74674;SDS011;63200;48.810;12.352;2023-02-02T00:55:17;15.05;;;2.05;;
74674;SDS011;63200;48.810;12.352;2023-02-02T00:57:43;8.13;;;1.80;;
74674;SDS011;63200;48.810;12.352;2023-02-02T01:00:13;6.95;;;1.80;;
74674;SDS011;63200;48.810;12.352;2023-02-02T01:02:39;10.38;;;1.85;;
74674;SDS011;63200;48.810;12.352;2023-02-02T01:05:05;9.02;;;1.58;;
74674;SDS011;63200;48.810;12.352;2023-02-02T01:07:31;8.38;;;2.28;;
74674;SDS011;63200;48.810;12.352;2023-02-02T01:09:56;5.57;;;1.40;;
74674;SDS011;63200;48.810;12.352;2023-02-02T01:12:21;7.03;;;2.05;;
74674;SDS011;63200;48.810;12.352;2023-02-02T01:14:47;2.57;;;2.17;;
74674;SDS011;63200;48.810;12.352;2023-02-02T01:17:12;12.70;;;2.20;;
74674;SDS011;63200;48.810;12.352;2023-02-02T01:19:38;5.95;;;1.98;;
74674;SDS011;63200;48.810;12.352;2023-02-02T01:22:04;2.97;;;1.25;;
74674;SDS011;63200;48.810;12.352;2023-02-02T01:24:30;3.08;;;1.77;;
74674;SDS011;63200;48.810;12.352;2023-02-02T01:26:55;9.18;;;2.20;;
74674;SDS011;63200;48.810;12.352;2023-02-02T01:29:21;5.60;;;2.20;;
74674;SDS011;63200;48.810;12.352;2023-02-02T01:31:46;10.00;;;2.20;;
74674;SDS011;63200;48.810;12.352;2023-02-02T01:34:12;4.57;;;1.70;;
74674;SDS011;63200;48.810;12.352;2023-02-02T01:36:37;8.67;;;1.80;;
74674;SDS011;63200;48.810;12.352;2023-02-02T01:39:02;8.27;;;2.60;;
74674;SDS011;63200;48.810;12.352;2023-02-02T01:41:28;2.75;;;1.70;;
74674;SDS011;63200;48.810;12.352;2023-02-02T01:43:58;7.28;;;1.75;;
74674;SDS011;63200;48.810;12.352;2023-02-02T01:46:26;5.60;;;1.60;;
74674;SDS011;63200;48.810;12.352;2023-02-02T01:49:07;3.33;;;1.45;;
74674;SDS011;63200;48.810;12.352;2023-02-02T01:54:21;2.17;;;1.90;;
74674;SDS011;63200;48.810;12.352;2023-02-02T01:56:58;12.75;;;2.10;;
74674;SDS011;63200;48.810;12.352;2023-02-02T01:59:26;9.38;;;1.65;;
74674;SDS011;63200;48.810;12.352;2023-02-02T02:01:53;7.87;;;2.27;;
74674;SDS011;63200;48.810;12.352;2023-02-02T02:04:19;3.47;;;1.08;;
74674;SDS011;63200;48.810;12.352;2023-02-02T02:06:46;3.03;;;1.52;;
74674;SDS011;63200;48.810;12.352;2023-02-02T02:09:12;1.77;;;1.20;;
74674;SDS011;63200;48.810;12.352;2023-02-02T02:11:38;9.70;;;2.00;;
74674;SDS011;63200;48.810;12.352;2023-02-02T02:14:05;3.40;;;1.60;;
74674;SDS011;63200;48.810;12.352;2023-02-02T02:17:03;7.13;;;1.70;;
74674;SDS011;63200;48.810;12.352;2023-02-02T02:23:04;4.27;;;1.73;;
74674;SDS011;63200;48.810;12.352;2023-02-02T02:29:28;3.13;;;1.70;;
74674;SDS011;63200;48.810;12.352;2023-02-02T02:42:33;4.00;;;2.13;;
74674;SDS011;63200;48.810;12.352;2023-02-02T02:45:03;3.40;;;1.40;;
74674;SDS011;63200;48.810;12.352;2023-02-02T02:47:30;5.27;;;2.27;;
74674;SDS011;63200;48.810;12.352;2023-02-02T02:49:56;1.20;;;1.20;;
74674;SDS011;63200;48.810;12.352;2023-02-02T02:52:22;0.70;;;0.70;;
74674;SDS011;63200;48.810;12.352;2023-02-02T02:54:56;6.38;;;1.55;;
74674;SDS011;63200;48.810;12.352;2023-02-02T03:08:26;1.75;;;0.70;;
74674;SDS011;63200;48.810;12.352;2023-02-02T03:10:54;0.50;;;0.50;;
74674;SDS011;63200;48.810;12.352;2023-02-02T03:13:22;0.50;;;0.50;;
74674;SDS011;63200;48.810;12.352;2023-02-02T03:15:49;0.30;;;0.30;;
74674;SDS011;63200;48.810;12.352;2023-02-02T03:18:15;0.30;;;0.30;;
74674;SDS011;63200;48.810;12.352;2023-02-02T03:20:43;0.10;;;0.10;;
74674;SDS011;63200;48.810;12.352;2023-02-02T03:23:09;0.20;;;0.20;;
74674;SDS011;63200;48.810;12.352;2023-02-02T03:25:35;0.20;;;0.20;;
74674;SDS011;63200;48.810;12.352;2023-02-02T03:28:00;1.40;;;0.20;;
74674;SDS011;63200;48.810;12.352;2023-02-02T03:30:26;0.17;;;0.17;;
74674;SDS011;63200;48.810;12.352;2023-02-02T03:32:51;0.20;;;0.20;;
74674;SDS011;63200;48.810;12.352;2023-02-02T03:35:17;0.20;;;0.20;;
74674;SDS011;63200;48.810;12.352;2023-02-02T03:37:44;0.50;;;0.10;;
74674;SDS011;63200;48.810;12.352;2023-02-02T03:40:11;0.30;;;0.30;;
74674;SDS011;63200;48.810;12.352;2023-02-02T03:42:36;0.33;;;0.33;;
74674;SDS011;63200;48.810;12.352;2023-02-02T03:45:02;0.63;;;0.30;;
74674;SDS011;63200;48.810;12.352;2023-02-02T03:47:28;0.10;;;0.10;;
74674;SDS011;63200;48.810;12.352;2023-02-02T03:49:53;0.30;;;0.30;;
74674;SDS011;63200;48.810;12.352;2023-02-02T03:52:19;1.50;;;0.20;;
74674;SDS011;63200;48.810;12.352;2023-02-02T03:54:44;0.15;;;0.15;;
74674;SDS011;63200;48.810;12.352;2023-02-02T03:57:09;0.37;;;0.10;;
74674;SDS011;63200;48.810;12.352;2023-02-02T03:59:35;0.13;;;0.13;;
74674;SDS011;63200;48.810;12.352;2023-02-02T04:02:00;0.10;;;0.10;;
74674;SDS011;63200;48.810;12.352;2023-02-02T04:04:25;0.10;;;0.10;;
74674;SDS011;63200;48.810;12.352;2023-02-02T04:06:51;0.17;;;0.17;;
74674;SDS011;63200;48.810;12.352;2023-02-02T04:09:16;0.20;;;0.20;;
74674;SDS011;63200;48.810;12.352;2023-02-02T04:11:42;0.10;;;0.10;;
74674;SDS011;63200;48.810;12.352;2023-02-02T04:14:08;0.10;;;0.10;;
74674;SDS011;63200;48.810;12.352;2023-02-02T04:16:34;0.30;;;0.20;;
74674;SDS011;63200;48.810;12.352;2023-02-02T04:19:01;0.10;;;0.10;;
74674;SDS011;63200;48.810;12.352;2023-02-02T04:21:27;0.10;;;0.10;;
74674;SDS011;63200;48.810;12.352;2023-02-02T04:23:53;0.10;;;0.10;;
74674;SDS011;63200;48.810;12.352;2023-02-02T04:26:18;0.10;;;0.10;;
74674;SDS011;63200;48.810;12.352;2023-02-02T04:28:44;0.10;;;0.10;;
74674;SDS011;63200;48.810;12.352;2023-02-02T04:31:09;0.10;;;0.10;;
74674;SDS011;63200;48.810;12.352;2023-02-02T04:33:34;0.10;;;0.10;;
74674;SDS011;63200;48.810;12.352;2023-02-02T04:36:00;0.10;;;0.10;;
74674;SDS011;63200;48.810;12.352;2023-02-02T04:38:25;0.10;;;0.10;;
74674;SDS011;63200;48.810;12.352;2023-02-02T04:40:50;0.27;;;0.27;;
74674;SDS011;63200;48.810;12.352;2023-02-02T04:43:16;0.20;;;0.20;;
74674;SDS011;63200;48.810;12.352;2023-02-02T04:45:41;0.10;;;0.10;;
74674;SDS011;63200;48.810;12.352;2023-02-02T04:48:07;0.10;;;0.10;;
74674;SDS011;63200;48.810;12.352;2023-02-02T04:50:32;0.10;;;0.10;;
74674;SDS011;63200;48.810;12.352;2023-02-02T04:52:57;0.20;;;0.20;;
74674;SDS011;63200;48.810;12.352;2023-02-02T04:55:23;0.10;;;0.10;;
74674;SDS011;63200;48.810;12.352;2023-02-02T04:57:48;0.17;;;0.17;;
74674;SDS011;63200;48.810;12.352;2023-02-02T05:00:14;0.10;;;0.10;;
74674;SDS011;63200;48.810;12.352;2023-02-02T05:02:40;0.10;;;0.10;;
74674;SDS011;63200;48.810;12.352;2023-02-02T05:05:07;0.20;;;0.20;;
74674;SDS011;63200;48.810;12.352;2023-02-02T05:07:35;0.20;;;0.20;;
74674;SDS011;63200;48.810;12.352;2023-02-02T05:10:00;0.03;;;0.03;;
74674;SDS011;63200;48.810;12.352;2023-02-02T05:12:26;0.20;;;0.20;;
74674;SDS011;63200;48.810;12.352;2023-02-02T05:14:51;0.10;;;0.10;;
74674;SDS011;63200;48.810;12.352;2023-02-02T05:17:16;0.20;;;0.20;;
74674;SDS011;63200;48.810;12.352;2023-02-02T05:19:42;0.10;;;0.10;;
74674;SDS011;63200;48.810;12.352;2023-02-02T05:22:07;0.10;;;0.10;;
74674;SDS011;63200;48.810;12.352;2023-02-02T05:24:33;0.13;;;0.13;;
74674;SDS011;63200;48.810;12.352;2023-02-02T05:26:58;0.10;;;0.10;;
74674;SDS011;63200;48.810;12.352;2023-02-02T05:29:27;0.17;;;0.17;;
74674;SDS011;63200;48.810;12.352;2023-02-02T05:31:54;0.20;;;0.20;;
74674;SDS011;63200;48.810;12.352;2023-02-02T05:34:20;0.20;;;0.20;;
74674;SDS011;63200;48.810;12.352;2023-02-02T05:36:46;0.10;;;0.10;;
74674;SDS011;63200;48.810;12.352;2023-02-02T05:39:12;0.20;;;0.20;;
74674;SDS011;63200;48.810;12.352;2023-02-02T05:41:37;0.30;;;0.30;;
74674;SDS011;63200;48.810;12.352;2023-02-02T05:44:03;0.30;;;0.30;;
74674;SDS011;63200;48.810;12.352;2023-02-02T05:46:28;0.20;;;0.20;;
74674;SDS011;63200;48.810;12.352;2023-02-02T05:48:54;0.30;;;0.30;;
74674;SDS011;63200;48.810;12.352;2023-02-02T05:51:22;0.40;;;0.40;;
74674;SDS011;63200;48.810;12.352;2023-02-02T05:53:48;0.50;;;0.50;;
74674;SDS011;63200;48.810;12.352;2023-02-02T05:56:13;0.40;;;0.40;;
74674;SDS011;63200;48.810;12.352;2023-02-02T05:58:39;0.20;;;0.20;;
74674;SDS011;63200;48.810;12.352;2023-02-02T06:01:05;0.60;;;0.60;;
74674;SDS011;63200;48.810;12.352;2023-02-02T06:03:31;0.43;;;0.43;;
74674;SDS011;63200;48.810;12.352;2023-02-02T06:05:56;0.30;;;0.30;;
74674;SDS011;63200;48.810;12.352;2023-02-02T06:08:21;0.40;;;0.40;;
74674;SDS011;63200;48.810;12.352;2023-02-02T06:10:47;0.30;;;0.30;;
74674;SDS011;63200;48.810;12.352;2023-02-02T06:13:12;0.27;;;0.27;;
74674;SDS011;63200;48.810;12.352;2023-02-02T06:15:37;0.20;;;0.20;;
74674;SDS011;63200;48.810;12.352;2023-02-02T06:18:03;0.40;;;0.40;;
74674;SDS011;63200;48.810;12.352;2023-02-02T06:20:30;0.23;;;0.23;;
74674;SDS011;63200;48.810;12.352;2023-02-02T06:22:56;0.30;;;0.30;;
74674;SDS011;63200;48.810;12.352;2023-02-02T06:25:21;0.30;;;0.30;;
74674;SDS011;63200;48.810;12.352;2023-02-02T06:27:47;0.30;;;0.30;;
74674;SDS011;63200;48.810;12.352;2023-02-02T06:30:13;0.50;;;0.50;;
74674;SDS011;63200;48.810;12.352;2023-02-02T06:32:39;0.70;;;0.70;;
74674;SDS011;63200;48.810;12.352;2023-02-02T06:35:04;0.50;;;0.50;;
74674;SDS011;63200;48.810;12.352;2023-02-02T06:37:30;0.33;;;0.33;;
74674;SDS011;63200;48.810;12.352;2023-02-02T06:39:56;0.50;;;0.50;;
74674;SDS011;63200;48.810;12.352;2023-02-02T06:42:21;0.57;;;0.57;;
74674;SDS011;63200;48.810;12.352;2023-02-02T06:44:46;0.73;;;0.73;;
74674;SDS011;63200;48.810;12.352;2023-02-02T06:47:12;0.70;;;0.70;;
74674;SDS011;63200;48.810;12.352;2023-02-02T06:49:37;0.63;;;0.63;;
74674;SDS011;63200;48.810;12.352;2023-02-02T06:52:02;0.70;;;0.70;;
74674;SDS011;63200;48.810;12.352;2023-02-02T06:54:28;1.07;;;0.90;;
74674;SDS011;63200;48.810;12.352;2023-02-02T06:56:54;0.70;;;0.70;;
74674;SDS011;63200;48.810;12.352;2023-02-02T06:59:20;0.40;;;0.40;;
74674;SDS011;63200;48.810;12.352;2023-02-02T07:01:47;0.40;;;0.40;;
74674;SDS011;63200;48.810;12.352;2023-02-02T07:04:13;0.30;;;0.30;;
74674;SDS011;63200;48.810;12.352;2023-02-02T07:06:41;0.57;;;0.57;;
74674;SDS011;63200;48.810;12.352;2023-02-02T07:09:06;0.40;;;0.40;;
74674;SDS011;63200;48.810;12.352;2023-02-02T07:11:31;0.30;;;0.30;;
74674;SDS011;63200;48.810;12.352;2023-02-02T07:13:59;0.30;;;0.30;;
74674;SDS011;63200;48.810;12.352;2023-02-02T07:16:24;0.60;;;0.60;;
74674;SDS011;63200;48.810;12.352;2023-02-02T07:18:50;0.47;;;0.47;;
74674;SDS011;63200;48.810;12.352;2023-02-02T07:21:16;0.20;;;0.20;;
74674;SDS011;63200;48.810;12.352;2023-02-02T07:23:43;0.47;;;0.47;;
74674;SDS011;63200;48.810;12.352;2023-02-02T07:26:09;0.13;;;0.13;;
74674;SDS011;63200;48.810;12.352;2023-02-02T07:28:37;0.30;;;0.30;;
74674;SDS011;63200;48.810;12.352;2023-02-02T07:31:12;0.33;;;0.20;;
74674;SDS011;63200;48.810;12.352;2023-02-02T07:33:42;0.27;;;0.27;;
74674;SDS011;63200;48.810;12.352;2023-02-02T07:36:10;0.13;;;0.13;;
74674;SDS011;63200;48.810;12.352;2023-02-02T07:38:37;0.70;;;0.70;;
74674;SDS011;63200;48.810;12.352;2023-02-02T07:41:02;0.27;;;0.27;;
74674;SDS011;63200;48.810;12.352;2023-02-02T07:43:28;0.40;;;0.40;;
74674;SDS011;63200;48.810;12.352;2023-02-02T07:45:53;2.23;;;0.40;;
74674;SDS011;63200;48.810;12.352;2023-02-02T07:48:19;1.40;;;0.70;;
74674;SDS011;63200;48.810;12.352;2023-02-02T07:50:45;0.50;;;0.50;;
74674;SDS011;63200;48.810;12.352;2023-02-02T07:53:10;0.40;;;0.40;;
74674;SDS011;63200;48.810;12.352;2023-02-02T07:55:35;0.60;;;0.37;;
74674;SDS011;63200;48.810;12.352;2023-02-02T07:58:01;0.23;;;0.23;;
74674;SDS011;63200;48.810;12.352;2023-02-02T08:00:26;0.40;;;0.40;;
74674;SDS011;63200;48.810;12.352;2023-02-02T08:02:52;0.30;;;0.30;;
74674;SDS011;63200;48.810;12.352;2023-02-02T08:05:17;0.30;;;0.30;;
74674;SDS011;63200;48.810;12.352;2023-02-02T08:07:43;0.20;;;0.20;;
74674;SDS011;63200;48.810;12.352;2023-02-02T08:10:09;0.37;;;0.37;;
74674;SDS011;63200;48.810;12.352;2023-02-02T08:12:35;0.50;;;0.50;;
74674;SDS011;63200;48.810;12.352;2023-02-02T08:15:00;0.40;;;0.40;;
74674;SDS011;63200;48.810;12.352;2023-02-02T08:17:25;0.20;;;0.20;;
74674;SDS011;63200;48.810;12.352;2023-02-02T08:19:51;0.40;;;0.40;;
74674;SDS011;63200;48.810;12.352;2023-02-02T08:22:16;0.50;;;0.50;;
74674;SDS011;63200;48.810;12.352;2023-02-02T08:24:41;0.27;;;0.27;;
74674;SDS011;63200;48.810;12.352;2023-02-02T08:27:07;0.27;;;0.27;;
74674;SDS011;63200;48.810;12.352;2023-02-02T08:29:34;0.27;;;0.27;;
74674;SDS011;63200;48.810;12.352;2023-02-02T08:32:00;0.20;;;0.20;;
74674;SDS011;63200;48.810;12.352;2023-02-02T08:34:26;0.10;;;0.10;;
74674;SDS011;63200;48.810;12.352;2023-02-02T08:36:51;0.43;;;0.43;;
74674;SDS011;63200;48.810;12.352;2023-02-02T08:39:16;0.40;;;0.40;;
74674;SDS011;63200;48.810;12.352;2023-02-02T08:41:41;0.87;;;0.87;;
74674;SDS011;63200;48.810;12.352;2023-02-02T08:44:07;0.60;;;0.60;;
74674;SDS011;63200;48.810;12.352;2023-02-02T08:46:34;0.50;;;0.50;;
74674;SDS011;63200;48.810;12.352;2023-02-02T08:48:59;0.40;;;0.40;;
74674;SDS011;63200;48.810;12.352;2023-02-02T08:51:24;1.00;;;1.00;;
74674;SDS011;63200;48.810;12.352;2023-02-02T08:53:50;1.00;;;1.00;;
74674;SDS011;63200;48.810;12.352;2023-02-02T08:56:19;1.20;;;1.20;;
74674;SDS011;63200;48.810;12.352;2023-02-02T08:58:46;1.30;;;1.30;;
74674;SDS011;63200;48.810;12.352;2023-02-02T09:01:23;0.50;;;0.50;;
74674;SDS011;63200;48.810;12.352;2023-02-02T09:03:54;0.60;;;0.60;;
74674;SDS011;63200;48.810;12.352;2023-02-02T09:06:27;0.40;;;0.40;;
74674;SDS011;63200;48.810;12.352;2023-02-02T09:08:55;0.60;;;0.60;;
74674;SDS011;63200;48.810;12.352;2023-02-02T09:11:21;0.50;;;0.50;;
74674;SDS011;63200;48.810;12.352;2023-02-02T09:13:47;0.40;;;0.40;;
74674;SDS011;63200;48.810;12.352;2023-02-02T09:16:14;0.30;;;0.30;;
74674;SDS011;63200;48.810;12.352;2023-02-02T09:18:41;0.50;;;0.50;;
74674;SDS011;63200;48.810;12.352;2023-02-02T09:21:08;0.40;;;0.40;;
74674;SDS011;63200;48.810;12.352;2023-02-02T09:23:35;0.60;;;0.53;;
74674;SDS011;63200;48.810;12.352;2023-02-02T09:26:12;0.20;;;0.20;;
74674;SDS011;63200;48.810;12.352;2023-02-02T09:28:42;0.77;;;0.50;;
74674;SDS011;63200;48.810;12.352;2023-02-02T09:31:16;1.43;;;0.50;;
74674;SDS011;63200;48.810;12.352;2023-02-02T09:33:41;1.10;;;1.03;;
74674;SDS011;63200;48.810;12.352;2023-02-02T09:36:08;0.93;;;0.90;;
74674;SDS011;63200;48.810;12.352;2023-02-02T09:38:38;0.50;;;0.50;;
74674;SDS011;63200;48.810;12.352;2023-02-02T09:49:11;1.03;;;0.93;;
74674;SDS011;63200;48.810;12.352;2023-02-02T09:51:43;1.07;;;1.07;;
74674;SDS011;63200;48.810;12.352;2023-02-02T09:54:23;1.30;;;1.30;;
74674;SDS011;63200;48.810;12.352;2023-02-02T09:56:57;1.10;;;1.10;;
74674;SDS011;63200;48.810;12.352;2023-02-02T09:59:32;1.40;;;1.30;;
74674;SDS011;63200;48.810;12.352;2023-02-02T10:02:23;1.60;;;1.50;;
74674;SDS011;63200;48.810;12.352;2023-02-02T10:04:53;1.97;;;1.50;;
74674;SDS011;63200;48.810;12.352;2023-02-02T10:07:35;1.30;;;1.30;;
74674;SDS011;63200;48.810;12.352;2023-02-02T10:10:13;1.30;;;1.30;;
74674;SDS011;63200;48.810;12.352;2023-02-02T10:15:25;1.20;;;1.20;;
74674;SDS011;63200;48.810;12.352;2023-02-02T10:18:02;1.33;;;1.30;;
74674;SDS011;63200;48.810;12.352;2023-02-02T10:20:37;1.03;;;0.90;;
74674;SDS011;63200;48.810;12.352;2023-02-02T10:23:12;1.40;;;1.30;;
74674;SDS011;63200;48.810;12.352;2023-02-02T10:25:45;1.30;;;1.20;;
74674;SDS011;63200;48.810;12.352;2023-02-02T10:28:31;1.00;;;1.00;;
74674;SDS011;63200;48.810;12.352;2023-02-02T10:31:02;1.10;;;1.10;;
74674;SDS011;63200;48.810;12.352;2023-02-02T10:36:22;1.10;;;1.10;;
74674;SDS011;63200;48.810;12.352;2023-02-02T10:39:08;1.00;;;1.00;;
74674;SDS011;63200;48.810;12.352;2023-02-02T10:41:47;0.90;;;0.90;;
74674;SDS011;63200;48.810;12.352;2023-02-02T10:44:39;1.10;;;1.00;;
74674;SDS011;63200;48.810;12.352;2023-02-02T10:47:15;0.93;;;0.88;;
74674;SDS011;63200;48.810;12.352;2023-02-02T10:49:58;0.70;;;0.70;;
74674;SDS011;63200;48.810;12.352;2023-02-02T10:52:47;1.65;;;0.80;;
74674;SDS011;63200;48.810;12.352;2023-02-02T10:58:00;0.80;;;0.80;;
74674;SDS011;63200;48.810;12.352;2023-02-02T11:03:00;0.77;;;0.77;;
74674;SDS011;63200;48.810;12.352;2023-02-02T11:05:28;1.90;;;1.10;;
74674;SDS011;63200;48.810;12.352;2023-02-02T11:10:44;0.80;;;0.80;;
74674;SDS011;63200;48.810;12.352;2023-02-02T11:13:13;0.70;;;0.70;;
74674;SDS011;63200;48.810;12.352;2023-02-02T11:15:43;0.93;;;0.93;;
74674;SDS011;63200;48.810;12.352;2023-02-02T11:18:27;1.90;;;0.93;;
74674;SDS011;63200;48.810;12.352;2023-02-02T11:20:55;1.03;;;0.90;;
74674;SDS011;63200;48.810;12.352;2023-02-02T11:23:21;1.05;;;1.05;;
74674;SDS011;63200;48.810;12.352;2023-02-02T11:25:58;0.80;;;0.80;;
74674;SDS011;63200;48.810;12.352;2023-02-02T11:28:25;4.45;;;0.90;;
74674;SDS011;63200;48.810;12.352;2023-02-02T11:30:55;1.20;;;1.20;;
74674;SDS011;63200;48.810;12.352;2023-02-02T11:35:53;4.57;;;1.00;;
74674;SDS011;63200;48.810;12.352;2023-02-02T11:38:23;1.13;;;0.93;;
74674;SDS011;63200;48.810;12.352;2023-02-02T11:40:53;1.10;;;1.10;;
74674;SDS011;63200;48.810;12.352;2023-02-02T11:43:28;1.60;;;1.50;;
74674;SDS011;63200;48.810;12.352;2023-02-02T11:45:55;7.50;;;1.00;;
74674;SDS011;63200;48.810;12.352;2023-02-02T11:48:26;0.80;;;0.80;;
74674;SDS011;63200;48.810;12.352;2023-02-02T11:50:54;0.93;;;0.83;;
74674;SDS011;63200;48.810;12.352;2023-02-02T11:55:52;0.77;;;0.77;;
74674;SDS011;63200;48.810;12.352;2023-02-02T11:58:20;1.33;;;0.77;;
74674;SDS011;63200;48.810;12.352;2023-02-02T12:00:58;0.70;;;0.70;;
74674;SDS011;63200;48.810;12.352;2023-02-02T12:03:27;0.80;;;0.80;;
74674;SDS011;63200;48.810;12.352;2023-02-02T12:05:52;2.93;;;0.70;;
74674;SDS011;63200;48.810;12.352;2023-02-02T12:08:18;0.80;;;0.80;;
74674;SDS011;63200;48.810;12.352;2023-02-02T12:16:42;0.70;;;0.70;;
74674;SDS011;63200;48.810;12.352;2023-02-02T12:19:27;0.77;;;0.70;;
74674;SDS011;63200;48.810;12.352;2023-02-02T12:31:00;0.83;;;0.83;;
74674;SDS011;63200;48.810;12.352;2023-02-02T12:36:21;2.20;;;1.00;;
74674;SDS011;63200;48.810;12.352;2023-02-02T12:39:09;3.72;;;0.80;;
74674;SDS011;63200;48.810;12.352;2023-02-02T12:42:32;1.27;;;0.90;;
74674;SDS011;63200;48.810;12.352;2023-02-02T12:52:43;2.97;;;1.20;;
74674;SDS011;63200;48.810;12.352;2023-02-02T13:01:21;1.25;;;0.70;;
74674;SDS011;63200;48.810;12.352;2023-02-02T13:07:27;0.80;;;0.80;;
74674;SDS011;63200;48.810;12.352;2023-02-02T13:12:15;1.10;;;1.00;;
74674;SDS011;63200;48.810;12.352;2023-02-02T13:14:44;1.50;;;0.80;;
74674;SDS011;63200;48.810;12.352;2023-02-02T13:17:37;1.90;;;0.85;;
74674;SDS011;63200;48.810;12.352;2023-02-02T13:22:49;0.60;;;0.60;;
74674;SDS011;63200;48.810;12.352;2023-02-02T13:25:20;0.70;;;0.70;;
74674;SDS011;63200;48.810;12.352;2023-02-02T13:27:50;1.60;;;0.70;;
74674;SDS011;63200;48.810;12.352;2023-02-02T13:30:21;1.40;;;0.80;;
74674;SDS011;63200;48.810;12.352;2023-02-02T13:32:53;0.70;;;0.70;;
74674;SDS011;63200;48.810;12.352;2023-02-02T13:35:24;0.80;;;0.80;;
74674;SDS011;63200;48.810;12.352;2023-02-02T13:38:00;0.60;;;0.60;;
74674;SDS011;63200;48.810;12.352;2023-02-02T13:40:37;0.80;;;0.80;;
74674;SDS011;63200;48.810;12.352;2023-02-02T13:45:54;1.10;;;1.10;;
74674;SDS011;63200;48.810;12.352;2023-02-02T14:00:27;1.30;;;1.10;;
74674;SDS011;63200;48.810;12.352;2023-02-02T14:03:05;1.30;;;1.20;;
74674;SDS011;63200;48.810;12.352;2023-02-02T14:06:00;1.30;;;1.30;;
74674;SDS011;63200;48.810;12.352;2023-02-02T14:08:28;1.17;;;1.17;;
74674;SDS011;63200;48.810;12.352;2023-02-02T14:10:56;3.20;;;1.40;;
74674;SDS011;63200;48.810;12.352;2023-02-02T14:13:24;1.60;;;1.50;;
74674;SDS011;63200;48.810;12.352;2023-02-02T14:16:21;2.63;;;1.50;;
74674;SDS011;63200;48.810;12.352;2023-02-02T14:19:07;3.73;;;2.23;;
74674;SDS011;63200;48.810;12.352;2023-02-02T14:24:37;4.03;;;3.63;;
74674;SDS011;63200;48.810;12.352;2023-02-02T14:34:58;30.97;;;12.57;;
74674;SDS011;63200;48.810;12.352;2023-02-02T14:42:48;19.13;;;9.57;;
74674;SDS011;63200;48.810;12.352;2023-02-02T14:45:43;23.23;;;10.07;;
74674;SDS011;63200;48.810;12.352;2023-02-02T14:48:19;12.93;;;7.53;;
74674;SDS011;63200;48.810;12.352;2023-02-02T14:50:48;20.13;;;9.67;;
74674;SDS011;63200;48.810;12.352;2023-02-02T14:58:57;7.87;;;5.63;;
74674;SDS011;63200;48.810;12.352;2023-02-02T15:01:25;10.23;;;5.93;;
74674;SDS011;63200;48.810;12.352;2023-02-02T15:03:55;10.70;;;6.03;;
74674;SDS011;63200;48.810;12.352;2023-02-02T15:06:37;9.30;;;5.57;;
74674;SDS011;63200;48.810;12.352;2023-02-02T15:22:42;10.57;;;4.43;;
74674;SDS011;63200;48.810;12.352;2023-02-02T15:25:19;5.50;;;3.33;;
74674;SDS011;63200;48.810;12.352;2023-02-02T15:27:56;3.97;;;2.47;;
74674;SDS011;63200;48.810;12.352;2023-02-02T15:30:25;1.65;;;1.50;;
74674;SDS011;63200;48.810;12.352;2023-02-02T15:32:54;1.10;;;1.10;;
74674;SDS011;63200;48.810;12.352;2023-02-02T15:35:21;1.08;;;1.08;;
74674;SDS011;63200;48.810;12.352;2023-02-02T15:37:52;0.90;;;0.90;;
74674;SDS011;63200;48.810;12.352;2023-02-02T15:40:23;1.10;;;1.10;;
74674;SDS011;63200;48.810;12.352;2023-02-02T15:43:09;0.83;;;0.83;;
74674;SDS011;63200;48.810;12.352;2023-02-02T15:45:35;0.90;;;0.90;;
74674;SDS011;63200;48.810;12.352;2023-02-02T15:48:20;0.80;;;0.80;;
74674;SDS011;63200;48.810;12.352;2023-02-02T15:50:48;0.90;;;0.90;;
74674;SDS011;63200;48.810;12.352;2023-02-02T15:53:25;0.80;;;0.80;;
74674;SDS011;63200;48.810;12.352;2023-02-02T15:58:47;1.00;;;1.00;;
74674;SDS011;63200;48.810;12.352;2023-02-02T16:01:15;0.83;;;0.83;;
74674;SDS011;63200;48.810;12.352;2023-02-02T16:03:45;0.80;;;0.80;;
74674;SDS011;63200;48.810;12.352;2023-02-02T16:06:11;0.70;;;0.70;;
74674;SDS011;63200;48.810;12.352;2023-02-02T16:08:37;1.03;;;1.03;;
74674;SDS011;63200;48.810;12.352;2023-02-02T16:11:08;0.97;;;0.97;;
74674;SDS011;63200;48.810;12.352;2023-02-02T16:13:36;0.80;;;0.80;;
74674;SDS011;63200;48.810;12.352;2023-02-02T16:16:05;0.80;;;0.80;;
74674;SDS011;63200;48.810;12.352;2023-02-02T16:18:44;0.60;;;0.60;;
74674;SDS011;63200;48.810;12.352;2023-02-02T16:21:23;0.60;;;0.60;;
74674;SDS011;63200;48.810;12.352;2023-02-02T16:23:50;0.57;;;0.57;;
74674;SDS011;63200;48.810;12.352;2023-02-02T16:26:17;1.10;;;1.10;;
74674;SDS011;63200;48.810;12.352;2023-02-02T16:28:45;2.57;;;1.10;;
74674;SDS011;63200;48.810;12.352;2023-02-02T16:31:11;1.00;;;1.00;;
74674;SDS011;63200;48.810;12.352;2023-02-02T16:38:41;3.13;;;1.20;;
74674;SDS011;63200;48.810;12.352;2023-02-02T16:41:11;0.93;;;0.93;;
74674;SDS011;63200;48.810;12.352;2023-02-02T16:43:39;1.13;;;1.13;;
74674;SDS011;63200;48.810;12.352;2023-02-02T16:46:07;1.30;;;1.30;;
74674;SDS011;63200;48.810;12.352;2023-02-02T16:48:57;1.43;;;1.43;;
74674;SDS011;63200;48.810;12.352;2023-02-02T16:58:55;1.27;;;1.23;;
74674;SDS011;63200;48.810;12.352;2023-02-02T17:01:34;1.20;;;1.20;;
74674;SDS011;63200;48.810;12.352;2023-02-02T17:04:02;1.00;;;1.00;;
74674;SDS011;63200;48.810;12.352;2023-02-02T17:06:31;1.13;;;1.13;;
74674;SDS011;63200;48.810;12.352;2023-02-02T17:09:15;1.20;;;1.10;;
74674;SDS011;63200;48.810;12.352;2023-02-02T17:14:32;1.37;;;1.37;;
74674;SDS011;63200;48.810;12.352;2023-02-02T17:17:01;1.10;;;1.10;;
74674;SDS011;63200;48.810;12.352;2023-02-02T17:19:29;1.13;;;1.13;;
74674;SDS011;63200;48.810;12.352;2023-02-02T17:21:56;1.30;;;1.30;;
74674;SDS011;63200;48.810;12.352;2023-02-02T17:24:25;1.63;;;1.20;;
74674;SDS011;63200;48.810;12.352;2023-02-02T17:26:51;1.37;;;1.37;;
74674;SDS011;63200;48.810;12.352;2023-02-02T17:29:17;1.83;;;1.83;;
74674;SDS011;63200;48.810;12.352;2023-02-02T17:31:43;1.87;;;1.77;;
74674;SDS011;63200;48.810;12.352;2023-02-02T17:34:12;1.10;;;1.10;;